sensor_id;sensor_type;location;lat;lon;timestamp;P1;durP1;ratioP1;P2;durP2;ratioP2
16181;SDS011;8197;51.664;7.114;2024-02-23T00:02:37;11.43;;;0.80;;
16181;SDS011;8197;51.664;7.114;2024-02-23T00:07:40;11.30;;;0.80;;
16181;SDS011;8197;51.664;7.114;2024-02-23T00:12:43;11.80;;;0.90;;
16181;SDS011;8197;51.664;7.114;2024-02-23T00:17:47;11.60;;;0.90;;
16181;SDS011;8197;51.664;7.114;2024-02-23T00:22:50;13.50;;;1.10;;
16181;SDS011;8197;51.664;7.114;2024-02-23T00:27:54;12.37;;;1.17;;
16181;SDS011;8197;51.664;7.114;2024-02-23T00:32:58;11.53;;;1.07;;
16181;SDS011;8197;51.664;7.114;2024-02-23T00:38:01;11.57;;;1.00;;
16181;SDS011;8197;51.664;7.114;2024-02-23T00:43:04;11.57;;;0.90;;
16181;SDS011;8197;51.664;7.114;2024-02-23T00:48:10;11.20;;;0.70;;
16181;SDS011;8197;51.664;7.114;2024-02-23T00:53:14;12.50;;;1.10;;
16181;SDS011;8197;51.664;7.114;2024-02-23T00:58:21;12.33;;;1.00;;
16181;SDS011;8197;51.664;7.114;2024-02-23T01:03:25;12.73;;;1.23;;
16181;SDS011;8197;51.664;7.114;2024-02-23T01:08:28;11.90;;;1.10;;
16181;SDS011;8197;51.664;7.114;2024-02-23T01:13:31;12.30;;;1.40;;
16181;SDS011;8197;51.664;7.114;2024-02-23T01:18:35;14.60;;;1.90;;
16181;SDS011;8197;51.664;7.114;2024-02-23T01:23:38;18.53;;;2.57;;
16181;SDS011;8197;51.664;7.114;2024-02-23T01:28:41;13.60;;;1.90;;
16181;SDS011;8197;51.664;7.114;2024-02-23T01:33:45;13.63;;;1.50;;
16181;SDS011;8197;51.664;7.114;2024-02-23T01:38:50;12.30;;;1.40;;
16181;SDS011;8197;51.664;7.114;2024-02-23T01:43:53;15.27;;;1.50;;
16181;SDS011;8197;51.664;7.114;2024-02-23T01:48:58;14.20;;;1.60;;
16181;SDS011;8197;51.664;7.114;2024-02-23T01:54:01;16.70;;;1.60;;
16181;SDS011;8197;51.664;7.114;2024-02-23T01:59:04;14.13;;;1.50;;
16181;SDS011;8197;51.664;7.114;2024-02-23T02:04:10;11.70;;;1.00;;
16181;SDS011;8197;51.664;7.114;2024-02-23T02:09:13;15.77;;;1.20;;
16181;SDS011;8197;51.664;7.114;2024-02-23T02:14:16;14.10;;;1.13;;
16181;SDS011;8197;51.664;7.114;2024-02-23T02:19:21;11.27;;;1.00;;
16181;SDS011;8197;51.664;7.114;2024-02-23T02:24:24;14.53;;;1.23;;
16181;SDS011;8197;51.664;7.114;2024-02-23T02:29:27;14.97;;;1.17;;
16181;SDS011;8197;51.664;7.114;2024-02-23T02:34:31;14.00;;;1.00;;
16181;SDS011;8197;51.664;7.114;2024-02-23T02:39:34;13.30;;;0.93;;
16181;SDS011;8197;51.664;7.114;2024-02-23T02:44:37;12.17;;;1.07;;
16181;SDS011;8197;51.664;7.114;2024-02-23T02:49:41;13.90;;;1.47;;
16181;SDS011;8197;51.664;7.114;2024-02-23T02:54:44;13.57;;;1.50;;
16181;SDS011;8197;51.664;7.114;2024-02-23T02:59:47;16.10;;;1.40;;
16181;SDS011;8197;51.664;7.114;2024-02-23T03:04:52;12.70;;;1.20;;
16181;SDS011;8197;51.664;7.114;2024-02-23T03:09:56;18.50;;;1.53;;
16181;SDS011;8197;51.664;7.114;2024-02-23T03:14:59;15.10;;;1.63;;
16181;SDS011;8197;51.664;7.114;2024-02-23T03:20:05;15.47;;;1.40;;
16181;SDS011;8197;51.664;7.114;2024-02-23T03:25:10;13.90;;;0.97;;
16181;SDS011;8197;51.664;7.114;2024-02-23T03:30:13;13.97;;;1.30;;
16181;SDS011;8197;51.664;7.114;2024-02-23T03:35:18;14.57;;;1.40;;
16181;SDS011;8197;51.664;7.114;2024-02-23T03:40:21;13.47;;;1.20;;
16181;SDS011;8197;51.664;7.114;2024-02-23T03:45:23;14.10;;;1.20;;
16181;SDS011;8197;51.664;7.114;2024-02-23T03:50:28;14.53;;;0.90;;
16181;SDS011;8197;51.664;7.114;2024-02-23T03:55:31;18.83;;;1.40;;
16181;SDS011;8197;51.664;7.114;2024-02-23T04:00:34;15.47;;;1.80;;
16181;SDS011;8197;51.664;7.114;2024-02-23T04:05:38;13.70;;;1.37;;
16181;SDS011;8197;51.664;7.114;2024-02-23T04:10:41;17.20;;;2.00;;
16181;SDS011;8197;51.664;7.114;2024-02-23T04:15:44;15.30;;;1.27;;
16181;SDS011;8197;51.664;7.114;2024-02-23T04:20:48;17.33;;;1.60;;
16181;SDS011;8197;51.664;7.114;2024-02-23T04:25:51;12.83;;;1.40;;
16181;SDS011;8197;51.664;7.114;2024-02-23T04:30:57;15.20;;;1.70;;
16181;SDS011;8197;51.664;7.114;2024-02-23T04:36:02;15.13;;;1.50;;
16181;SDS011;8197;51.664;7.114;2024-02-23T04:41:05;14.70;;;1.43;;
16181;SDS011;8197;51.664;7.114;2024-02-23T04:46:08;16.83;;;1.70;;
16181;SDS011;8197;51.664;7.114;2024-02-23T04:51:12;14.30;;;1.13;;
16181;SDS011;8197;51.664;7.114;2024-02-23T04:56:15;13.13;;;1.10;;
16181;SDS011;8197;51.664;7.114;2024-02-23T05:01:21;16.67;;;1.40;;
16181;SDS011;8197;51.664;7.114;2024-02-23T05:06:25;13.20;;;1.20;;
16181;SDS011;8197;51.664;7.114;2024-02-23T05:11:28;13.77;;;1.97;;
16181;SDS011;8197;51.664;7.114;2024-02-23T05:16:31;13.43;;;1.20;;
16181;SDS011;8197;51.664;7.114;2024-02-23T05:21:35;14.20;;;1.00;;
16181;SDS011;8197;51.664;7.114;2024-02-23T05:26:38;11.73;;;1.13;;
16181;SDS011;8197;51.664;7.114;2024-02-23T05:31:45;15.90;;;1.40;;
16181;SDS011;8197;51.664;7.114;2024-02-23T05:36:50;16.20;;;1.13;;
16181;SDS011;8197;51.664;7.114;2024-02-23T05:41:53;16.90;;;1.37;;
16181;SDS011;8197;51.664;7.114;2024-02-23T05:46:56;15.97;;;1.50;;
16181;SDS011;8197;51.664;7.114;2024-02-23T05:52:01;15.60;;;1.63;;
16181;SDS011;8197;51.664;7.114;2024-02-23T05:57:04;17.87;;;1.60;;
16181;SDS011;8197;51.664;7.114;2024-02-23T06:02:06;14.80;;;1.60;;
16181;SDS011;8197;51.664;7.114;2024-02-23T06:07:11;16.87;;;2.40;;
16181;SDS011;8197;51.664;7.114;2024-02-23T06:12:19;14.10;;;1.40;;
16181;SDS011;8197;51.664;7.114;2024-02-23T06:17:22;16.60;;;1.70;;
16181;SDS011;8197;51.664;7.114;2024-02-23T06:22:26;19.60;;;1.50;;
16181;SDS011;8197;51.664;7.114;2024-02-23T06:27:29;18.90;;;1.50;;
16181;SDS011;8197;51.664;7.114;2024-02-23T06:32:34;20.03;;;1.40;;
16181;SDS011;8197;51.664;7.114;2024-02-23T06:37:39;17.90;;;1.40;;
16181;SDS011;8197;51.664;7.114;2024-02-23T06:42:42;18.00;;;1.43;;
16181;SDS011;8197;51.664;7.114;2024-02-23T06:47:45;15.60;;;1.00;;
16181;SDS011;8197;51.664;7.114;2024-02-23T06:52:49;13.60;;;1.53;;
16181;SDS011;8197;51.664;7.114;2024-02-23T06:57:52;25.03;;;2.17;;
16181;SDS011;8197;51.664;7.114;2024-02-23T07:02:58;16.77;;;1.60;;
16181;SDS011;8197;51.664;7.114;2024-02-23T07:08:06;22.83;;;1.93;;
16181;SDS011;8197;51.664;7.114;2024-02-23T07:13:10;15.47;;;1.23;;
16181;SDS011;8197;51.664;7.114;2024-02-23T07:18:13;14.90;;;1.10;;
16181;SDS011;8197;51.664;7.114;2024-02-23T07:23:42;19.70;;;1.93;;
16181;SDS011;8197;51.664;7.114;2024-02-23T07:28:45;22.20;;;1.20;;
16181;SDS011;8197;51.664;7.114;2024-02-23T07:33:48;14.17;;;1.23;;
16181;SDS011;8197;51.664;7.114;2024-02-23T07:38:53;26.37;;;1.83;;
16181;SDS011;8197;51.664;7.114;2024-02-23T07:43:56;19.53;;;1.90;;
16181;SDS011;8197;51.664;7.114;2024-02-23T07:48:59;20.57;;;2.30;;
16181;SDS011;8197;51.664;7.114;2024-02-23T07:54:04;14.23;;;1.53;;
16181;SDS011;8197;51.664;7.114;2024-02-23T07:59:07;19.37;;;1.50;;
16181;SDS011;8197;51.664;7.114;2024-02-23T08:04:10;12.90;;;1.43;;
16181;SDS011;8197;51.664;7.114;2024-02-23T08:09:16;15.47;;;1.70;;
16181;SDS011;8197;51.664;7.114;2024-02-23T08:14:19;14.47;;;1.30;;
16181;SDS011;8197;51.664;7.114;2024-02-23T08:19:22;15.73;;;1.23;;
16181;SDS011;8197;51.664;7.114;2024-02-23T08:24:26;13.53;;;1.73;;
16181;SDS011;8197;51.664;7.114;2024-02-23T08:29:29;14.90;;;1.43;;
16181;SDS011;8197;51.664;7.114;2024-02-23T08:34:35;24.93;;;2.20;;
16181;SDS011;8197;51.664;7.114;2024-02-23T08:39:40;14.50;;;1.13;;
16181;SDS011;8197;51.664;7.114;2024-02-23T08:44:42;15.53;;;1.57;;
16181;SDS011;8197;51.664;7.114;2024-02-23T08:49:45;15.80;;;1.77;;
16181;SDS011;8197;51.664;7.114;2024-02-23T08:54:51;11.80;;;1.10;;
16181;SDS011;8197;51.664;7.114;2024-02-23T08:59:54;12.60;;;0.90;;
16181;SDS011;8197;51.664;7.114;2024-02-23T09:04:59;16.20;;;1.40;;
16181;SDS011;8197;51.664;7.114;2024-02-23T09:10:04;19.10;;;2.00;;
16181;SDS011;8197;51.664;7.114;2024-02-23T09:15:07;12.83;;;1.10;;
16181;SDS011;8197;51.664;7.114;2024-02-23T09:20:11;15.53;;;1.13;;
16181;SDS011;8197;51.664;7.114;2024-02-23T09:25:16;14.77;;;1.43;;
16181;SDS011;8197;51.664;7.114;2024-02-23T09:30:19;20.87;;;1.60;;
16181;SDS011;8197;51.664;7.114;2024-02-23T09:35:22;18.30;;;1.57;;
16181;SDS011;8197;51.664;7.114;2024-02-23T09:40:26;16.53;;;1.57;;
16181;SDS011;8197;51.664;7.114;2024-02-23T09:45:29;15.80;;;1.20;;
16181;SDS011;8197;51.664;7.114;2024-02-23T09:50:32;17.50;;;1.70;;
16181;SDS011;8197;51.664;7.114;2024-02-23T09:55:37;14.33;;;1.13;;
16181;SDS011;8197;51.664;7.114;2024-02-23T10:00:40;22.33;;;1.40;;
16181;SDS011;8197;51.664;7.114;2024-02-23T10:05:43;16.77;;;1.40;;
16181;SDS011;8197;51.664;7.114;2024-02-23T10:10:48;16.47;;;1.43;;
16181;SDS011;8197;51.664;7.114;2024-02-23T10:15:53;13.73;;;1.30;;
16181;SDS011;8197;51.664;7.114;2024-02-23T10:21:14;18.57;;;1.30;;
16181;SDS011;8197;51.664;7.114;2024-02-23T10:26:19;21.33;;;3.23;;
16181;SDS011;8197;51.664;7.114;2024-02-23T10:31:24;14.67;;;1.30;;
16181;SDS011;8197;51.664;7.114;2024-02-23T10:36:27;13.87;;;1.50;;
16181;SDS011;8197;51.664;7.114;2024-02-23T10:41:34;12.10;;;1.10;;
16181;SDS011;8197;51.664;7.114;2024-02-23T10:46:38;11.90;;;1.03;;
16181;SDS011;8197;51.664;7.114;2024-02-23T10:51:42;16.03;;;1.47;;
16181;SDS011;8197;51.664;7.114;2024-02-23T10:56:50;11.50;;;1.00;;
16181;SDS011;8197;51.664;7.114;2024-02-23T11:01:54;14.63;;;1.60;;
16181;SDS011;8197;51.664;7.114;2024-02-23T11:07:00;13.30;;;1.43;;
16181;SDS011;8197;51.664;7.114;2024-02-23T11:12:10;12.50;;;1.20;;
16181;SDS011;8197;51.664;7.114;2024-02-23T11:17:17;13.20;;;1.23;;
16181;SDS011;8197;51.664;7.114;2024-02-23T11:22:23;12.50;;;1.03;;
16181;SDS011;8197;51.664;7.114;2024-02-23T11:27:39;14.03;;;1.07;;
16181;SDS011;8197;51.664;7.114;2024-02-23T11:32:45;18.23;;;1.43;;
16181;SDS011;8197;51.664;7.114;2024-02-23T11:37:51;12.80;;;1.23;;
16181;SDS011;8197;51.664;7.114;2024-02-23T11:43:01;14.73;;;1.70;;
16181;SDS011;8197;51.664;7.114;2024-02-23T11:48:05;15.43;;;1.00;;
16181;SDS011;8197;51.664;7.114;2024-02-23T11:53:09;13.83;;;0.87;;
16181;SDS011;8197;51.664;7.114;2024-02-23T11:58:14;13.53;;;0.83;;
16181;SDS011;8197;51.664;7.114;2024-02-23T12:03:19;12.87;;;1.10;;
16181;SDS011;8197;51.664;7.114;2024-02-23T12:08:22;16.57;;;1.70;;
16181;SDS011;8197;51.664;7.114;2024-02-23T12:13:28;17.00;;;1.13;;
16181;SDS011;8197;51.664;7.114;2024-02-23T12:18:33;17.67;;;1.60;;
16181;SDS011;8197;51.664;7.114;2024-02-23T12:23:39;14.50;;;1.37;;
16181;SDS011;8197;51.664;7.114;2024-02-23T12:28:44;16.83;;;1.90;;
16181;SDS011;8197;51.664;7.114;2024-02-23T12:33:48;15.60;;;1.30;;
16181;SDS011;8197;51.664;7.114;2024-02-23T12:38:51;13.20;;;1.23;;
16181;SDS011;8197;51.664;7.114;2024-02-23T12:43:55;12.70;;;1.10;;
16181;SDS011;8197;51.664;7.114;2024-02-23T12:48:58;19.07;;;1.50;;
16181;SDS011;8197;51.664;7.114;2024-02-23T12:54:01;16.63;;;2.00;;
16181;SDS011;8197;51.664;7.114;2024-02-23T12:59:07;12.97;;;1.50;;
16181;SDS011;8197;51.664;7.114;2024-02-23T13:04:11;17.50;;;1.53;;
16181;SDS011;8197;51.664;7.114;2024-02-23T13:09:17;15.80;;;1.07;;
16181;SDS011;8197;51.664;7.114;2024-02-23T13:14:23;13.83;;;1.13;;
16181;SDS011;8197;51.664;7.114;2024-02-23T13:19:27;13.90;;;1.40;;
16181;SDS011;8197;51.664;7.114;2024-02-23T13:24:30;15.57;;;1.83;;
16181;SDS011;8197;51.664;7.114;2024-02-23T13:29:35;15.37;;;2.00;;
16181;SDS011;8197;51.664;7.114;2024-02-23T13:34:37;17.90;;;2.03;;
16181;SDS011;8197;51.664;7.114;2024-02-23T13:39:40;15.20;;;1.53;;
16181;SDS011;8197;51.664;7.114;2024-02-23T13:44:45;16.33;;;1.50;;
16181;SDS011;8197;51.664;7.114;2024-02-23T13:49:48;16.23;;;2.17;;
16181;SDS011;8197;51.664;7.114;2024-02-23T13:54:53;17.37;;;1.67;;
16181;SDS011;8197;51.664;7.114;2024-02-23T13:59:57;18.83;;;1.40;;
16181;SDS011;8197;51.664;7.114;2024-02-23T14:05:01;14.27;;;1.67;;
16181;SDS011;8197;51.664;7.114;2024-02-23T14:10:07;14.50;;;1.53;;
16181;SDS011;8197;51.664;7.114;2024-02-23T14:15:11;22.17;;;1.60;;
16181;SDS011;8197;51.664;7.114;2024-02-23T14:20:14;19.93;;;1.30;;
16181;SDS011;8197;51.664;7.114;2024-02-23T14:25:17;14.50;;;1.50;;
16181;SDS011;8197;51.664;7.114;2024-02-23T14:30:22;13.00;;;1.03;;
16181;SDS011;8197;51.664;7.114;2024-02-23T14:35:25;16.57;;;1.17;;
16181;SDS011;8197;51.664;7.114;2024-02-23T14:40:28;14.00;;;1.20;;
16181;SDS011;8197;51.664;7.114;2024-02-23T14:45:32;14.27;;;1.40;;
16181;SDS011;8197;51.664;7.114;2024-02-23T14:50:35;14.93;;;1.63;;
16181;SDS011;8197;51.664;7.114;2024-02-23T14:55:38;13.73;;;1.30;;
16181;SDS011;8197;51.664;7.114;2024-02-23T15:00:42;15.97;;;1.67;;
16181;SDS011;8197;51.664;7.114;2024-02-23T15:05:45;15.50;;;2.00;;
16181;SDS011;8197;51.664;7.114;2024-02-23T15:10:51;37.53;;;1.50;;
16181;SDS011;8197;51.664;7.114;2024-02-23T15:15:55;14.60;;;1.17;;
16181;SDS011;8197;51.664;7.114;2024-02-23T15:20:58;16.23;;;1.50;;
16181;SDS011;8197;51.664;7.114;2024-02-23T15:26:02;18.10;;;1.93;;
16181;SDS011;8197;51.664;7.114;2024-02-23T15:31:14;13.60;;;1.37;;
16181;SDS011;8197;51.664;7.114;2024-02-23T15:36:17;14.33;;;1.17;;
16181;SDS011;8197;51.664;7.114;2024-02-23T15:41:20;13.07;;;1.30;;
16181;SDS011;8197;51.664;7.114;2024-02-23T15:46:25;14.00;;;1.03;;
16181;SDS011;8197;51.664;7.114;2024-02-23T15:51:28;15.83;;;1.03;;
16181;SDS011;8197;51.664;7.114;2024-02-23T15:56:52;13.43;;;1.60;;
16181;SDS011;8197;51.664;7.114;2024-02-23T16:01:56;12.83;;;1.07;;
16181;SDS011;8197;51.664;7.114;2024-02-23T16:07:03;14.40;;;1.00;;
16181;SDS011;8197;51.664;7.114;2024-02-23T16:12:08;16.17;;;1.30;;
16181;SDS011;8197;51.664;7.114;2024-02-23T16:17:13;11.17;;;0.77;;
16181;SDS011;8197;51.664;7.114;2024-02-23T16:22:16;13.00;;;1.43;;
16181;SDS011;8197;51.664;7.114;2024-02-23T16:27:19;17.40;;;2.00;;
16181;SDS011;8197;51.664;7.114;2024-02-23T16:32:23;16.90;;;1.50;;
16181;SDS011;8197;51.664;7.114;2024-02-23T16:37:26;13.40;;;1.10;;
16181;SDS011;8197;51.664;7.114;2024-02-23T16:42:30;16.87;;;1.97;;
16181;SDS011;8197;51.664;7.114;2024-02-23T16:47:34;14.03;;;1.60;;
16181;SDS011;8197;51.664;7.114;2024-02-23T16:52:38;16.00;;;1.77;;
16181;SDS011;8197;51.664;7.114;2024-02-23T16:57:41;15.17;;;2.30;;
16181;SDS011;8197;51.664;7.114;2024-02-23T17:02:45;14.60;;;1.90;;
16181;SDS011;8197;51.664;7.114;2024-02-23T17:07:48;14.63;;;2.00;;
16181;SDS011;8197;51.664;7.114;2024-02-23T17:12:51;27.90;;;2.33;;
16181;SDS011;8197;51.664;7.114;2024-02-23T17:17:57;15.40;;;2.10;;
16181;SDS011;8197;51.664;7.114;2024-02-23T17:23:00;13.40;;;1.63;;
16181;SDS011;8197;51.664;7.114;2024-02-23T17:28:04;18.80;;;1.77;;
16181;SDS011;8197;51.664;7.114;2024-02-23T17:33:08;15.00;;;1.60;;
16181;SDS011;8197;51.664;7.114;2024-02-23T17:38:11;14.00;;;1.60;;
16181;SDS011;8197;51.664;7.114;2024-02-23T17:43:15;18.90;;;2.23;;
16181;SDS011;8197;51.664;7.114;2024-02-23T17:48:19;20.10;;;5.00;;
16181;SDS011;8197;51.664;7.114;2024-02-23T17:53:22;23.47;;;6.37;;
16181;SDS011;8197;51.664;7.114;2024-02-23T17:58:31;17.70;;;4.13;;
16181;SDS011;8197;51.664;7.114;2024-02-23T18:03:38;25.60;;;7.20;;
16181;SDS011;8197;51.664;7.114;2024-02-23T18:08:41;36.70;;;16.33;;
16181;SDS011;8197;51.664;7.114;2024-02-23T18:13:44;48.83;;;20.77;;
16181;SDS011;8197;51.664;7.114;2024-02-23T18:18:48;24.37;;;8.43;;
16181;SDS011;8197;51.664;7.114;2024-02-23T18:23:52;17.10;;;4.43;;
16181;SDS011;8197;51.664;7.114;2024-02-23T18:28:55;19.20;;;5.73;;
16181;SDS011;8197;51.664;7.114;2024-02-23T18:34:00;38.03;;;10.60;;
16181;SDS011;8197;51.664;7.114;2024-02-23T18:39:04;30.30;;;9.77;;
16181;SDS011;8197;51.664;7.114;2024-02-23T18:44:10;20.60;;;5.53;;
16181;SDS011;8197;51.664;7.114;2024-02-23T18:49:16;20.83;;;5.60;;
16181;SDS011;8197;51.664;7.114;2024-02-23T18:54:19;97.73;;;34.03;;
16181;SDS011;8197;51.664;7.114;2024-02-23T18:59:22;175.10;;;68.10;;
16181;SDS011;8197;51.664;7.114;2024-02-23T19:04:26;39.20;;;15.00;;
16181;SDS011;8197;51.664;7.114;2024-02-23T19:09:30;37.67;;;11.00;;
16181;SDS011;8197;51.664;7.114;2024-02-23T19:14:33;25.60;;;7.80;;
16181;SDS011;8197;51.664;7.114;2024-02-23T19:19:38;20.50;;;5.30;;
16181;SDS011;8197;51.664;7.114;2024-02-23T19:24:41;19.47;;;4.43;;
16181;SDS011;8197;51.664;7.114;2024-02-23T19:29:44;27.10;;;6.97;;
16181;SDS011;8197;51.664;7.114;2024-02-23T19:34:48;23.20;;;5.93;;
16181;SDS011;8197;51.664;7.114;2024-02-23T19:39:51;29.73;;;5.43;;
16181;SDS011;8197;51.664;7.114;2024-02-23T19:44:55;18.63;;;4.33;;
16181;SDS011;8197;51.664;7.114;2024-02-23T19:50:01;19.40;;;4.40;;
16181;SDS011;8197;51.664;7.114;2024-02-23T19:55:04;18.00;;;3.73;;
16181;SDS011;8197;51.664;7.114;2024-02-23T20:00:11;16.50;;;2.80;;
16181;SDS011;8197;51.664;7.114;2024-02-23T20:05:16;20.90;;;3.03;;
16181;SDS011;8197;51.664;7.114;2024-02-23T20:10:19;18.63;;;3.00;;
16181;SDS011;8197;51.664;7.114;2024-02-23T20:15:22;18.93;;;2.93;;
16181;SDS011;8197;51.664;7.114;2024-02-23T20:20:26;17.20;;;2.70;;
16181;SDS011;8197;51.664;7.114;2024-02-23T20:25:29;18.27;;;2.93;;
16181;SDS011;8197;51.664;7.114;2024-02-23T20:30:32;21.40;;;3.33;;
16181;SDS011;8197;51.664;7.114;2024-02-23T20:35:37;20.10;;;2.43;;
16181;SDS011;8197;51.664;7.114;2024-02-23T20:40:40;17.90;;;2.37;;
16181;SDS011;8197;51.664;7.114;2024-02-23T20:45:43;13.77;;;1.70;;
16181;SDS011;8197;51.664;7.114;2024-02-23T20:50:47;16.00;;;2.37;;
16181;SDS011;8197;51.664;7.114;2024-02-23T20:55:50;15.07;;;1.73;;
16181;SDS011;8197;51.664;7.114;2024-02-23T21:00:54;14.50;;;1.47;;
16181;SDS011;8197;51.664;7.114;2024-02-23T21:06:00;18.60;;;2.13;;
16181;SDS011;8197;51.664;7.114;2024-02-23T21:11:03;18.60;;;2.20;;
16181;SDS011;8197;51.664;7.114;2024-02-23T21:16:06;15.40;;;2.00;;
16181;SDS011;8197;51.664;7.114;2024-02-23T21:21:11;17.03;;;2.10;;
16181;SDS011;8197;51.664;7.114;2024-02-23T21:26:13;14.53;;;1.77;;
16181;SDS011;8197;51.664;7.114;2024-02-23T21:31:17;13.60;;;1.30;;
16181;SDS011;8197;51.664;7.114;2024-02-23T21:36:21;15.30;;;1.53;;
16181;SDS011;8197;51.664;7.114;2024-02-23T21:41:24;13.57;;;1.53;;
16181;SDS011;8197;51.664;7.114;2024-02-23T21:46:27;14.30;;;1.60;;
16181;SDS011;8197;51.664;7.114;2024-02-23T21:51:31;13.00;;;1.53;;
16181;SDS011;8197;51.664;7.114;2024-02-23T21:56:34;13.67;;;2.20;;
16181;SDS011;8197;51.664;7.114;2024-02-23T22:01:37;21.40;;;1.77;;
16181;SDS011;8197;51.664;7.114;2024-02-23T22:06:41;16.07;;;2.00;;
16181;SDS011;8197;51.664;7.114;2024-02-23T22:11:44;19.70;;;2.43;;
16181;SDS011;8197;51.664;7.114;2024-02-23T22:16:47;20.73;;;2.60;;
16181;SDS011;8197;51.664;7.114;2024-02-23T22:21:52;16.33;;;2.13;;
16181;SDS011;8197;51.664;7.114;2024-02-23T22:26:54;14.57;;;2.20;;
16181;SDS011;8197;51.664;7.114;2024-02-23T22:31:57;15.97;;;2.00;;
16181;SDS011;8197;51.664;7.114;2024-02-23T22:37:03;12.57;;;1.63;;
16181;SDS011;8197;51.664;7.114;2024-02-23T22:42:09;14.40;;;1.70;;
16181;SDS011;8197;51.664;7.114;2024-02-23T22:47:12;14.93;;;1.77;;
16181;SDS011;8197;51.664;7.114;2024-02-23T22:52:17;17.63;;;2.33;;
16181;SDS011;8197;51.664;7.114;2024-02-23T22:57:20;15.03;;;2.17;;
16181;SDS011;8197;51.664;7.114;2024-02-23T23:02:23;15.93;;;1.50;;
16181;SDS011;8197;51.664;7.114;2024-02-23T23:07:27;14.63;;;1.33;;
16181;SDS011;8197;51.664;7.114;2024-02-23T23:12:31;12.37;;;1.30;;
16181;SDS011;8197;51.664;7.114;2024-02-23T23:17:34;13.93;;;1.30;;
16181;SDS011;8197;51.664;7.114;2024-02-23T23:22:39;14.13;;;1.50;;
16181;SDS011;8197;51.664;7.114;2024-02-23T23:27:42;12.70;;;1.67;;
16181;SDS011;8197;51.664;7.114;2024-02-23T23:32:45;15.50;;;1.70;;
16181;SDS011;8197;51.664;7.114;2024-02-23T23:37:49;16.10;;;1.80;;
16181;SDS011;8197;51.664;7.114;2024-02-23T23:42:52;12.87;;;1.50;;
16181;SDS011;8197;51.664;7.114;2024-02-23T23:47:55;12.30;;;1.20;;
16181;SDS011;8197;51.664;7.114;2024-02-23T23:52:59;15.20;;;1.30;;
16181;SDS011;8197;51.664;7.114;2024-02-23T23:58:05;12.13;;;1.30;;
